createdAt,value
2023-03-08T00:04:35.340Z,82.04
2023-03-08T00:09:39.828Z,82.85
2023-03-08T00:14:41.351Z,82.08
2023-03-08T00:19:43.110Z,82.35
2023-03-08T00:24:44.710Z,82.14
2023-03-08T00:29:46.212Z,82.28
2023-03-08T00:34:47.662Z,81.47
2023-03-08T00:39:54.588Z,81.53
2023-03-08T00:44:56.048Z,80.87
2023-03-08T00:49:57.471Z,81.88
2023-03-08T00:54:58.907Z,80.86
2023-03-08T01:00:00.470Z,81.64
2023-03-08T01:05:01.926Z,82.97
2023-03-08T01:10:05.376Z,82.21
2023-03-08T01:15:07.586Z,82.02
2023-03-08T01:20:09.636Z,81.57
2023-03-08T01:25:11.135Z,81.14
2023-03-08T01:30:12.853Z,82.77
2023-03-08T01:35:14.574Z,85.24
2023-03-08T01:40:16.517Z,82.98
2023-03-08T01:45:55.237Z,80.91
2023-03-08T01:50:56.892Z,82.16
2023-03-08T01:55:58.514Z,80.39
2023-03-08T02:00:59.944Z,81.86
2023-03-08T02:06:03.112Z,81.29
2023-03-08T02:11:04.721Z,80.97
2023-03-08T02:16:10.177Z,82.40
2023-03-08T02:21:11.620Z,82.67
2023-03-08T02:26:13.196Z,82.94
2023-03-08T02:31:15.932Z,82.80
2023-03-08T02:36:17.472Z,81.73
2023-03-08T02:41:20.212Z,82.02
2023-03-08T02:46:21.740Z,81.36
2023-03-08T02:51:23.158Z,81.46
2023-03-08T02:56:24.817Z,81.11
2023-03-08T03:01:26.282Z,81.21
2023-03-08T03:06:27.833Z,81.64
2023-03-08T03:11:29.370Z,81.34
2023-03-08T03:16:30.851Z,81.06
2023-03-08T03:21:32.627Z,81.83
2023-03-08T03:26:35.096Z,81.74
2023-03-08T03:31:36.724Z,81.37
2023-03-08T03:36:38.151Z,81.82
2023-03-08T03:41:39.603Z,81.91
2023-03-08T03:46:41.068Z,82.81
2023-03-08T03:51:42.543Z,82.36
2023-03-08T03:56:43.997Z,82.72
2023-03-08T04:01:45.415Z,83.52
2023-03-08T04:06:46.864Z,82.48
2023-03-08T04:11:48.275Z,82.96
2023-03-08T04:16:49.718Z,82.92
2023-03-08T04:21:51.304Z,82.93
2023-03-08T04:26:52.753Z,83.08
2023-03-08T04:31:58.208Z,83.52
2023-03-08T04:36:59.652Z,82.73
2023-03-08T04:42:01.088Z,83.16
2023-03-08T04:47:02.592Z,82.82
2023-03-08T04:52:04.373Z,83.39
2023-03-08T04:57:05.914Z,82.95
2023-03-08T05:02:07.384Z,83.37
2023-03-08T05:07:08.947Z,83.45
2023-03-08T05:12:10.446Z,82.96
2023-03-08T05:17:11.995Z,82.74
2023-03-08T05:22:13.571Z,83.02
2023-03-08T05:27:15.026Z,83.04
2023-03-08T05:32:16.525Z,83.39
2023-03-08T05:37:18.015Z,82.89
2023-03-08T05:42:19.824Z,83.14
2023-03-08T05:47:21.295Z,82.86
2023-03-08T05:52:22.742Z,83.18
2023-03-08T05:57:24.244Z,83.26
2023-03-08T06:02:25.838Z,82.87
2023-03-08T06:07:27.376Z,83.20
2023-03-08T06:12:28.807Z,83.30
2023-03-08T06:17:30.240Z,82.80
2023-03-08T06:22:31.661Z,82.90
2023-03-08T06:27:33.101Z,83.05
2023-03-08T06:32:35.997Z,82.96
2023-03-08T06:37:37.508Z,82.05
2023-03-08T06:42:41.755Z,81.81
2023-03-08T06:47:43.482Z,81.33
2023-03-08T06:52:45.032Z,81.04
2023-03-08T06:57:47.116Z,81.44
2023-03-08T07:02:49.745Z,80.91
2023-03-08T07:07:51.262Z,80.65
2023-03-08T07:12:52.844Z,81.39
2023-03-08T07:17:56.414Z,80.29
2023-03-08T07:23:01.627Z,79.22
2023-03-08T07:28:03.057Z,79.52
2023-03-08T07:33:04.582Z,78.64
2023-03-08T07:38:06.140Z,78.59
2023-03-08T07:43:07.600Z,78.83
2023-03-08T07:48:09.066Z,78.71
2023-03-08T07:53:10.592Z,79.27
2023-03-08T07:58:12.015Z,78.86
2023-03-08T08:03:13.519Z,77.35
2023-03-08T08:08:15.046Z,76.65
2023-03-08T08:13:16.510Z,76.90
2023-03-08T08:18:17.920Z,77.72
2023-03-08T08:23:19.334Z,77.90
2023-03-08T08:28:20.774Z,79.15
2023-03-08T08:33:22.320Z,78.46
2023-03-08T08:38:24.630Z,78.26
2023-03-08T08:43:26.217Z,77.40
2023-03-08T08:48:28.381Z,76.87
2023-03-08T08:53:29.859Z,77.12
2023-03-08T08:58:31.308Z,76.51
2023-03-08T09:03:32.775Z,77.25
2023-03-08T09:08:34.217Z,76.26
2023-03-08T09:13:38.237Z,76.34
2023-03-08T09:18:39.699Z,73.16
2023-03-08T09:23:41.762Z,71.90
2023-03-08T09:28:43.282Z,74.13
2023-03-08T09:33:51.895Z,72.29
2023-03-08T09:38:54.080Z,72.30
2023-03-08T09:44:14.092Z,72.51
2023-03-08T09:49:22.210Z,72.80
2023-03-08T09:54:25.514Z,71.52
2023-03-08T09:59:35.649Z,68.99
2023-03-08T10:05:12.381Z,70.79
2023-03-08T10:10:33.102Z,70.74
2023-03-08T10:15:43.427Z,65.79
2023-03-08T10:20:45.733Z,68.51
2023-03-08T10:25:49.037Z,70.99
2023-03-08T10:30:51.864Z,71.62
2023-03-08T10:35:58.737Z,72.05
2023-03-08T10:41:10.504Z,72.03
2023-03-08T10:46:14.750Z,72.52
2023-03-08T10:51:29.173Z,72.43
2023-03-08T10:56:44.619Z,72.38
2023-03-08T11:01:52.316Z,71.94
2023-03-08T11:06:54.021Z,71.94
2023-03-08T11:11:57.348Z,71.78
2023-03-08T11:17:07.631Z,71.74
2023-03-08T11:22:46.599Z,72.25
2023-03-08T11:28:02.039Z,71.89
2023-03-08T11:33:48.867Z,72.74
2023-03-08T11:38:59.453Z,71.91
2023-03-08T11:44:09.322Z,72.05
2023-03-08T11:49:43.118Z,73.47
2023-03-08T11:55:11.942Z,71.49
2023-03-08T12:00:23.705Z,71.98
2023-03-08T12:05:36.884Z,72.54
2023-03-08T12:10:46.066Z,72.13
2023-03-08T12:15:54.478Z,70.66
2023-03-08T12:21:08.103Z,70.81
2023-03-08T12:26:24.077Z,71.29
2023-03-08T12:31:30.063Z,70.88
2023-03-08T12:36:40.892Z,71.38
2023-03-08T12:41:42.454Z,72.14
2023-03-08T12:47:00.232Z,71.89
2023-03-08T12:52:25.468Z,71.73
2023-03-08T12:57:34.085Z,72.14
2023-03-08T13:02:35.737Z,71.56
2023-03-08T13:07:50.355Z,72.00
2023-03-08T13:13:18.478Z,71.68
2023-03-08T13:18:28.378Z,70.81
2023-03-08T13:23:38.784Z,70.57
2023-03-08T13:28:47.798Z,71.08
2023-03-08T13:33:59.546Z,71.12
2023-03-08T13:39:17.767Z,71.93
2023-03-08T13:44:24.591Z,72.58
2023-03-08T13:49:36.401Z,73.65
2023-03-08T13:54:45.186Z,72.74
2023-03-08T13:59:52.905Z,73.58
2023-03-08T14:04:55.199Z,73.68
2023-03-08T14:09:57.371Z,74.70
2023-03-08T14:15:02.509Z,74.58
2023-03-08T14:20:16.977Z,75.59
2023-03-08T14:25:36.663Z,75.69
2023-03-08T14:30:47.185Z,76.33
2023-03-08T14:35:55.729Z,75.77
2023-03-08T14:41:00.322Z,76.80
2023-03-08T14:46:07.254Z,77.20
2023-03-08T14:51:17.690Z,77.59
2023-03-08T14:56:19.095Z,78.16
2023-03-08T15:01:32.631Z,78.02
2023-03-08T15:06:36.713Z,77.81
2023-03-08T15:11:38.251Z,78.13
2023-03-08T15:16:39.938Z,79.11
2023-03-08T15:21:42.237Z,79.48
2023-03-08T15:26:44.823Z,79.60
2023-03-08T15:31:46.240Z,80.05
2023-03-08T15:36:48.902Z,80.61
2023-03-08T15:41:50.550Z,81.21
2023-03-08T15:46:52.945Z,82.28
2023-03-08T15:51:54.826Z,82.36
2023-03-08T15:56:56.272Z,82.40
2023-03-08T16:01:57.710Z,82.57
2023-03-08T16:06:59.124Z,82.37
2023-03-08T16:12:00.560Z,83.68
2023-03-08T16:17:03.781Z,83.71
2023-03-08T16:22:05.491Z,83.47
2023-03-08T16:27:06.970Z,84.16
2023-03-08T16:32:10.031Z,84.09
2023-03-08T16:37:11.549Z,84.65
2023-03-08T16:42:13.761Z,84.62
2023-03-08T16:47:15.235Z,85.04
2023-03-08T16:52:18.687Z,85.08
2023-03-08T16:57:21.629Z,85.20
2023-03-08T17:02:23.180Z,85.18
2023-03-08T17:07:24.681Z,85.67
2023-03-08T17:12:26.142Z,85.97
2023-03-08T17:17:27.612Z,86.25
2023-03-08T17:22:29.256Z,86.25
2023-03-08T17:27:30.952Z,86.45
2023-03-08T17:32:32.390Z,86.63
2023-03-08T17:37:41.666Z,86.60
2023-03-08T17:42:43.194Z,86.68
2023-03-08T17:47:45.071Z,87.19
2023-03-08T17:52:46.625Z,87.36
2023-03-08T17:57:48.061Z,86.97
2023-03-08T18:02:49.684Z,86.89
2023-03-08T18:07:51.159Z,87.21
2023-03-08T18:12:52.732Z,87.12
2023-03-08T18:17:54.243Z,87.39
2023-03-08T18:22:55.986Z,87.50
2023-03-08T18:27:57.418Z,87.68
2023-03-08T18:32:58.847Z,87.68
2023-03-08T18:38:00.713Z,87.40
2023-03-08T18:43:03.361Z,87.88
2023-03-08T18:48:04.788Z,88.01
2023-03-08T18:53:06.268Z,87.97
2023-03-08T18:58:08.156Z,87.68
2023-03-08T19:03:09.587Z,87.55
2023-03-08T19:08:11.008Z,88.42
2023-03-08T19:13:12.445Z,88.30
2023-03-08T19:18:13.934Z,88.68
2023-03-08T19:23:15.361Z,88.06
2023-03-08T19:28:16.809Z,88.26
2023-03-08T19:33:30.495Z,88.41
2023-03-08T19:38:33.000Z,88.31
2023-03-08T19:43:34.475Z,88.05
2023-03-08T19:48:36.654Z,88.70
2023-03-08T19:53:38.102Z,88.57
2023-03-08T19:58:39.554Z,88.30
2023-03-08T20:03:41.501Z,88.65
2023-03-08T20:08:44.375Z,88.43
2023-03-08T20:13:45.833Z,88.05
2023-03-08T20:18:51.579Z,88.54
2023-03-08T20:23:57.493Z,88.42
2023-03-08T20:28:59.610Z,88.68
2023-03-08T20:34:01.245Z,88.27
2023-03-08T20:39:03.836Z,88.13
2023-03-08T20:44:05.312Z,87.93
2023-03-08T20:49:06.902Z,87.96
2023-03-08T20:54:08.826Z,87.97
2023-03-08T20:59:10.927Z,87.98
2023-03-08T21:04:12.740Z,88.61
2023-03-08T21:09:14.355Z,88.46
2023-03-08T21:14:15.809Z,88.70
2023-03-08T21:19:17.412Z,87.95
2023-03-08T21:24:21.231Z,88.10
2023-03-08T21:29:22.756Z,87.90
2023-03-08T21:34:24.315Z,88.08
2023-03-08T21:39:26.850Z,88.33
2023-03-08T21:44:30.289Z,88.83
2023-03-08T21:49:35.157Z,88.33
2023-03-08T21:54:36.580Z,88.65
2023-03-08T21:59:38.099Z,89.00
2023-03-08T22:04:39.578Z,88.58
2023-03-08T22:09:41.034Z,88.68
2023-03-08T22:14:42.437Z,88.82
2023-03-08T22:19:44.416Z,88.77
2023-03-08T22:24:46.159Z,88.41
2023-03-08T22:29:47.620Z,88.81
2023-03-08T22:34:49.286Z,88.69
2023-03-08T22:39:50.785Z,88.13
2023-03-08T22:44:52.272Z,88.10
2023-03-08T22:49:53.701Z,88.37
2023-03-08T22:54:55.214Z,88.14
2023-03-08T22:59:58.038Z,88.65
2023-03-08T23:04:59.456Z,88.52
2023-03-08T23:10:00.875Z,88.93
2023-03-08T23:16:13.645Z,88.65
2023-03-08T23:21:17.719Z,88.80
2023-03-08T23:26:21.444Z,88.45
2023-03-08T23:31:26.432Z,88.53
2023-03-08T23:36:30.362Z,89.34
2023-03-08T23:41:32.621Z,89.66
2023-03-08T23:46:34.136Z,89.60
2023-03-08T23:51:35.900Z,89.43
2023-03-08T23:56:39.182Z,89.57
